sensor_id;sensor_type;location;lat;lon;timestamp;P1;durP1;ratioP1;P2;durP2;ratioP2
27921;SDS011;15261;50.356;10.340;2023-07-30T00:02:28;49.47;;;7.35;;
27921;SDS011;15261;50.356;10.340;2023-07-30T00:05:06;31.85;;;7.57;;
27921;SDS011;15261;50.356;10.340;2023-07-30T00:07:50;7.45;;;6.45;;
27921;SDS011;15261;50.356;10.340;2023-07-30T00:10:19;69.78;;;8.02;;
27921;SDS011;15261;50.356;10.340;2023-07-30T00:12:50;17.38;;;7.45;;
27921;SDS011;15261;50.356;10.340;2023-07-30T00:15:25;6.95;;;6.35;;
27921;SDS011;15261;50.356;10.340;2023-07-30T00:17:51;6.75;;;6.07;;
27921;SDS011;15261;50.356;10.340;2023-07-30T00:20:29;8.30;;;6.15;;
27921;SDS011;15261;50.356;10.340;2023-07-30T00:23:10;6.55;;;5.82;;
27921;SDS011;15261;50.356;10.340;2023-07-30T00:25:59;9.80;;;5.97;;
27921;SDS011;15261;50.356;10.340;2023-07-30T00:28:36;6.32;;;5.53;;
27921;SDS011;15261;50.356;10.340;2023-07-30T00:31:25;6.20;;;5.70;;
27921;SDS011;15261;50.356;10.340;2023-07-30T00:33:57;7.70;;;6.50;;
27921;SDS011;15261;50.356;10.340;2023-07-30T00:36:28;7.00;;;5.63;;
27921;SDS011;15261;50.356;10.340;2023-07-30T00:38:54;7.25;;;5.63;;
27921;SDS011;15261;50.356;10.340;2023-07-30T00:41:20;6.75;;;5.65;;
27921;SDS011;15261;50.356;10.340;2023-07-30T00:43:46;6.22;;;5.57;;
27921;SDS011;15261;50.356;10.340;2023-07-30T00:46:12;8.18;;;5.55;;
27921;SDS011;15261;50.356;10.340;2023-07-30T00:48:38;7.45;;;5.50;;
27921;SDS011;15261;50.356;10.340;2023-07-30T00:51:04;5.47;;;4.97;;
27921;SDS011;15261;50.356;10.340;2023-07-30T00:53:32;7.30;;;5.53;;
27921;SDS011;15261;50.356;10.340;2023-07-30T00:56:01;5.63;;;5.10;;
27921;SDS011;15261;50.356;10.340;2023-07-30T00:58:31;5.53;;;4.35;;
27921;SDS011;15261;50.356;10.340;2023-07-30T01:21:43;9.48;;;4.70;;
27921;SDS011;15261;50.356;10.340;2023-07-30T01:24:29;7.97;;;4.30;;
27921;SDS011;15261;50.356;10.340;2023-07-30T01:27:59;6.07;;;4.03;;
27921;SDS011;15261;50.356;10.340;2023-07-30T01:30:27;8.07;;;4.28;;
27921;SDS011;15261;50.356;10.340;2023-07-30T01:33:25;6.32;;;4.40;;
27921;SDS011;15261;50.356;10.340;2023-07-30T01:39:27;6.38;;;4.30;;
27921;SDS011;15261;50.356;10.340;2023-07-30T01:41:53;5.43;;;4.35;;
27921;SDS011;15261;50.356;10.340;2023-07-30T01:44:19;5.03;;;4.10;;
27921;SDS011;15261;50.356;10.340;2023-07-30T01:47:05;4.85;;;4.45;;
27921;SDS011;15261;50.356;10.340;2023-07-30T01:50:07;6.07;;;3.88;;
27921;SDS011;15261;50.356;10.340;2023-07-30T01:52:50;7.47;;;4.22;;
27921;SDS011;15261;50.356;10.340;2023-07-30T01:55:18;10.25;;;4.80;;
27921;SDS011;15261;50.356;10.340;2023-07-30T01:58:29;7.97;;;4.13;;
27921;SDS011;15261;50.356;10.340;2023-07-30T02:01:04;10.02;;;3.90;;
27921;SDS011;15261;50.356;10.340;2023-07-30T02:04:20;10.95;;;4.05;;
27921;SDS011;15261;50.356;10.340;2023-07-30T02:06:48;6.13;;;4.22;;
27921;SDS011;15261;50.356;10.340;2023-07-30T02:09:57;8.45;;;4.38;;
27921;SDS011;15261;50.356;10.340;2023-07-30T02:12:50;6.70;;;4.10;;
27921;SDS011;15261;50.356;10.340;2023-07-30T02:18:43;5.32;;;3.55;;
27921;SDS011;15261;50.356;10.340;2023-07-30T02:21:17;4.78;;;4.00;;
27921;SDS011;15261;50.356;10.340;2023-07-30T02:23:49;6.32;;;3.80;;
27921;SDS011;15261;50.356;10.340;2023-07-30T02:26:19;4.38;;;3.72;;
27921;SDS011;15261;50.356;10.340;2023-07-30T02:28:45;7.15;;;3.90;;
27921;SDS011;15261;50.356;10.340;2023-07-30T02:31:15;6.40;;;3.80;;
27921;SDS011;15261;50.356;10.340;2023-07-30T02:33:50;7.18;;;3.67;;
27921;SDS011;15261;50.356;10.340;2023-07-30T02:36:16;6.55;;;3.30;;
27921;SDS011;15261;50.356;10.340;2023-07-30T02:38:44;4.18;;;3.20;;
27921;SDS011;15261;50.356;10.340;2023-07-30T02:41:10;5.55;;;3.05;;
27921;SDS011;15261;50.356;10.340;2023-07-30T02:43:40;3.30;;;3.00;;
27921;SDS011;15261;50.356;10.340;2023-07-30T02:46:06;4.13;;;3.10;;
27921;SDS011;15261;50.356;10.340;2023-07-30T02:48:32;3.38;;;3.10;;
27921;SDS011;15261;50.356;10.340;2023-07-30T02:51:00;3.70;;;2.90;;
27921;SDS011;15261;50.356;10.340;2023-07-30T02:53:26;3.55;;;2.88;;
27921;SDS011;15261;50.356;10.340;2023-07-30T02:55:52;3.55;;;3.25;;
27921;SDS011;15261;50.356;10.340;2023-07-30T02:58:25;2.92;;;2.70;;
27921;SDS011;15261;50.356;10.340;2023-07-30T03:01:04;3.20;;;3.00;;
27921;SDS011;15261;50.356;10.340;2023-07-30T03:03:37;6.50;;;2.90;;
27921;SDS011;15261;50.356;10.340;2023-07-30T03:06:10;2.80;;;2.60;;
27921;SDS011;15261;50.356;10.340;2023-07-30T03:08:36;5.63;;;3.00;;
27921;SDS011;15261;50.356;10.340;2023-07-30T03:11:04;5.00;;;2.70;;
27921;SDS011;15261;50.356;10.340;2023-07-30T03:13:30;6.60;;;3.33;;
27921;SDS011;15261;50.356;10.340;2023-07-30T03:19:06;6.60;;;3.40;;
27921;SDS011;15261;50.356;10.340;2023-07-30T03:21:44;4.07;;;3.03;;
27921;SDS011;15261;50.356;10.340;2023-07-30T03:24:13;6.45;;;3.20;;
27921;SDS011;15261;50.356;10.340;2023-07-30T03:30:15;4.80;;;3.05;;
27921;SDS011;15261;50.356;10.340;2023-07-30T03:32:52;4.13;;;2.80;;
27921;SDS011;15261;50.356;10.340;2023-07-30T03:35:24;3.42;;;3.08;;
27921;SDS011;15261;50.356;10.340;2023-07-30T03:38:15;2.92;;;2.70;;
27921;SDS011;15261;50.356;10.340;2023-07-30T03:40:41;3.40;;;3.10;;
27921;SDS011;15261;50.356;10.340;2023-07-30T03:46:59;3.05;;;2.80;;
27921;SDS011;15261;50.356;10.340;2023-07-30T03:49:40;3.75;;;2.72;;
27921;SDS011;15261;50.356;10.340;2023-07-30T03:52:06;4.78;;;2.80;;
27921;SDS011;15261;50.356;10.340;2023-07-30T03:54:41;4.90;;;2.78;;
27921;SDS011;15261;50.356;10.340;2023-07-30T03:57:14;5.50;;;3.00;;
27921;SDS011;15261;50.356;10.340;2023-07-30T03:59:43;3.72;;;2.88;;
27921;SDS011;15261;50.356;10.340;2023-07-30T04:02:28;3.08;;;2.60;;
27921;SDS011;15261;50.356;10.340;2023-07-30T04:05:03;3.13;;;2.88;;
27921;SDS011;15261;50.356;10.340;2023-07-30T04:07:32;3.38;;;3.10;;
27921;SDS011;15261;50.356;10.340;2023-07-30T04:16:40;4.65;;;2.78;;
27921;SDS011;15261;50.356;10.340;2023-07-30T04:19:21;6.55;;;3.13;;
27921;SDS011;15261;50.356;10.340;2023-07-30T04:21:50;4.75;;;3.20;;
27921;SDS011;15261;50.356;10.340;2023-07-30T04:24:16;4.97;;;3.00;;
27921;SDS011;15261;50.356;10.340;2023-07-30T04:26:49;3.80;;;3.20;;
27921;SDS011;15261;50.356;10.340;2023-07-30T04:32:58;3.80;;;3.00;;
27921;SDS011;15261;50.356;10.340;2023-07-30T04:35:59;3.80;;;2.97;;
27921;SDS011;15261;50.356;10.340;2023-07-30T04:38:37;3.92;;;3.30;;
27921;SDS011;15261;50.356;10.340;2023-07-30T04:41:03;4.10;;;2.75;;
27921;SDS011;15261;50.356;10.340;2023-07-30T04:43:32;5.20;;;2.88;;
27921;SDS011;15261;50.356;10.340;2023-07-30T04:45:58;9.82;;;3.00;;
27921;SDS011;15261;50.356;10.340;2023-07-30T04:48:24;3.25;;;2.95;;
27921;SDS011;15261;50.356;10.340;2023-07-30T04:50:50;6.20;;;3.08;;
27921;SDS011;15261;50.356;10.340;2023-07-30T04:53:16;3.80;;;3.00;;
27921;SDS011;15261;50.356;10.340;2023-07-30T04:55:43;6.15;;;3.00;;
27921;SDS011;15261;50.356;10.340;2023-07-30T04:58:09;3.90;;;3.17;;
27921;SDS011;15261;50.356;10.340;2023-07-30T05:00:35;5.20;;;3.50;;
27921;SDS011;15261;50.356;10.340;2023-07-30T05:03:01;4.18;;;3.28;;
27921;SDS011;15261;50.356;10.340;2023-07-30T05:05:30;6.43;;;3.30;;
27921;SDS011;15261;50.356;10.340;2023-07-30T05:08:28;4.40;;;2.90;;
27921;SDS011;15261;50.356;10.340;2023-07-30T05:10:54;5.85;;;3.08;;
27921;SDS011;15261;50.356;10.340;2023-07-30T05:13:25;5.93;;;2.90;;
27921;SDS011;15261;50.356;10.340;2023-07-30T05:15:51;6.18;;;2.83;;
27921;SDS011;15261;50.356;10.340;2023-07-30T05:18:18;4.90;;;2.95;;
27921;SDS011;15261;50.356;10.340;2023-07-30T05:20:45;5.70;;;3.10;;
27921;SDS011;15261;50.356;10.340;2023-07-30T05:23:11;8.13;;;3.47;;
27921;SDS011;15261;50.356;10.340;2023-07-30T05:25:38;7.22;;;3.40;;
27921;SDS011;15261;50.356;10.340;2023-07-30T05:28:13;5.80;;;4.65;;
27921;SDS011;15261;50.356;10.340;2023-07-30T05:30:45;8.15;;;7.35;;
27921;SDS011;15261;50.356;10.340;2023-07-30T05:33:12;5.03;;;4.57;;
27921;SDS011;15261;50.356;10.340;2023-07-30T05:35:40;4.65;;;4.20;;
27921;SDS011;15261;50.356;10.340;2023-07-30T05:38:06;4.57;;;4.00;;
27921;SDS011;15261;50.356;10.340;2023-07-30T05:40:33;5.07;;;3.83;;
27921;SDS011;15261;50.356;10.340;2023-07-30T05:43:02;5.03;;;4.63;;
27921;SDS011;15261;50.356;10.340;2023-07-30T05:45:31;4.70;;;4.30;;
27921;SDS011;15261;50.356;10.340;2023-07-30T05:48:01;10.43;;;8.70;;
27921;SDS011;15261;50.356;10.340;2023-07-30T05:50:50;10.13;;;8.70;;
27921;SDS011;15261;50.356;10.340;2023-07-30T05:53:21;7.93;;;6.28;;
27921;SDS011;15261;50.356;10.340;2023-07-30T05:55:50;4.78;;;4.38;;
27921;SDS011;15261;50.356;10.340;2023-07-30T05:58:19;5.50;;;5.00;;
27921;SDS011;15261;50.356;10.340;2023-07-30T06:00:54;5.32;;;4.82;;
27921;SDS011;15261;50.356;10.340;2023-07-30T06:03:47;5.43;;;4.10;;
27921;SDS011;15261;50.356;10.340;2023-07-30T06:09:33;3.60;;;3.33;;
27921;SDS011;15261;50.356;10.340;2023-07-30T06:12:21;4.18;;;3.70;;
27921;SDS011;15261;50.356;10.340;2023-07-30T06:15:10;3.63;;;3.30;;
27921;SDS011;15261;50.356;10.340;2023-07-30T06:17:44;8.45;;;3.53;;
27921;SDS011;15261;50.356;10.340;2023-07-30T06:20:39;4.82;;;3.90;;
27921;SDS011;15261;50.356;10.340;2023-07-30T06:36:37;3.50;;;3.20;;
27921;SDS011;15261;50.356;10.340;2023-07-30T06:39:10;3.88;;;3.10;;
27921;SDS011;15261;50.356;10.340;2023-07-30T06:41:55;3.60;;;3.00;;
27921;SDS011;15261;50.356;10.340;2023-07-30T06:44:49;3.58;;;3.25;;
27921;SDS011;15261;50.356;10.340;2023-07-30T06:47:15;3.40;;;3.08;;
27921;SDS011;15261;50.356;10.340;2023-07-30T06:49:50;3.80;;;3.33;;
27921;SDS011;15261;50.356;10.340;2023-07-30T06:52:55;9.68;;;3.33;;
27921;SDS011;15261;50.356;10.340;2023-07-30T06:58:28;2.83;;;2.58;;
27921;SDS011;15261;50.356;10.340;2023-07-30T07:00:57;3.72;;;2.97;;
27921;SDS011;15261;50.356;10.340;2023-07-30T07:03:32;5.05;;;2.70;;
27921;SDS011;15261;50.356;10.340;2023-07-30T07:13:18;5.03;;;2.65;;
27921;SDS011;15261;50.356;10.340;2023-07-30T07:15:58;2.90;;;2.70;;
27921;SDS011;15261;50.356;10.340;2023-07-30T07:25:40;3.33;;;2.60;;
27921;SDS011;15261;50.356;10.340;2023-07-30T07:35:02;2.72;;;2.53;;
27921;SDS011;15261;50.356;10.340;2023-07-30T07:37:44;4.32;;;2.75;;
27921;SDS011;15261;50.356;10.340;2023-07-30T07:40:40;2.20;;;2.10;;
